sensor_id;sensor_type;location;lat;lon;timestamp;P1;durP1;ratioP1;P2;durP2;ratioP2
50549;SDS011;36505;52.512;13.460;2023-04-24T00:00:53;7.25;;;4.10;;
50549;SDS011;36505;52.512;13.460;2023-04-24T00:03:21;7.00;;;4.45;;
50549;SDS011;36505;52.512;13.460;2023-04-24T00:05:50;4.88;;;3.85;;
50549;SDS011;36505;52.512;13.460;2023-04-24T00:08:17;6.40;;;4.53;;
50549;SDS011;36505;52.512;13.460;2023-04-24T00:10:42;7.65;;;4.38;;
50549;SDS011;36505;52.512;13.460;2023-04-24T00:13:08;6.65;;;4.60;;
50549;SDS011;36505;52.512;13.460;2023-04-24T00:15:34;5.88;;;4.00;;
50549;SDS011;36505;52.512;13.460;2023-04-24T00:17:59;6.75;;;4.35;;
50549;SDS011;36505;52.512;13.460;2023-04-24T00:20:26;5.53;;;4.15;;
50549;SDS011;36505;52.512;13.460;2023-04-24T00:22:53;6.97;;;4.60;;
50549;SDS011;36505;52.512;13.460;2023-04-24T00:25:18;7.28;;;4.03;;
50549;SDS011;36505;52.512;13.460;2023-04-24T00:27:44;7.25;;;4.28;;
50549;SDS011;36505;52.512;13.460;2023-04-24T00:30:09;7.50;;;4.65;;
50549;SDS011;36505;52.512;13.460;2023-04-24T00:32:35;6.57;;;4.55;;
50549;SDS011;36505;52.512;13.460;2023-04-24T00:35:00;6.43;;;4.32;;
50549;SDS011;36505;52.512;13.460;2023-04-24T00:37:25;6.43;;;3.90;;
50549;SDS011;36505;52.512;13.460;2023-04-24T00:39:51;10.15;;;4.05;;
50549;SDS011;36505;52.512;13.460;2023-04-24T00:42:16;5.25;;;3.78;;
50549;SDS011;36505;52.512;13.460;2023-04-24T00:44:41;5.85;;;4.47;;
50549;SDS011;36505;52.512;13.460;2023-04-24T00:47:07;9.07;;;4.63;;
50549;SDS011;36505;52.512;13.460;2023-04-24T00:49:33;5.68;;;4.28;;
50549;SDS011;36505;52.512;13.460;2023-04-24T00:51:58;6.57;;;4.18;;
50549;SDS011;36505;52.512;13.460;2023-04-24T00:54:24;7.82;;;4.60;;
50549;SDS011;36505;52.512;13.460;2023-04-24T00:56:50;7.18;;;4.28;;
50549;SDS011;36505;52.512;13.460;2023-04-24T00:59:16;9.50;;;4.35;;
50549;SDS011;36505;52.512;13.460;2023-04-24T01:01:43;6.03;;;4.47;;
50549;SDS011;36505;52.512;13.460;2023-04-24T01:04:09;6.30;;;4.43;;
50549;SDS011;36505;52.512;13.460;2023-04-24T01:06:37;7.15;;;4.40;;
50549;SDS011;36505;52.512;13.460;2023-04-24T01:09:04;5.90;;;4.35;;
50549;SDS011;36505;52.512;13.460;2023-04-24T01:11:30;6.22;;;4.68;;
50549;SDS011;36505;52.512;13.460;2023-04-24T01:13:56;6.65;;;4.43;;
50549;SDS011;36505;52.512;13.460;2023-04-24T01:16:21;6.00;;;4.75;;
50549;SDS011;36505;52.512;13.460;2023-04-24T01:18:49;8.98;;;4.47;;
50549;SDS011;36505;52.512;13.460;2023-04-24T01:21:15;8.32;;;4.63;;
50549;SDS011;36505;52.512;13.460;2023-04-24T01:23:46;6.13;;;4.75;;
50549;SDS011;36505;52.512;13.460;2023-04-24T01:26:13;7.18;;;4.82;;
50549;SDS011;36505;52.512;13.460;2023-04-24T01:28:40;4.90;;;3.92;;
50549;SDS011;36505;52.512;13.460;2023-04-24T01:31:06;6.47;;;4.75;;
50549;SDS011;36505;52.512;13.460;2023-04-24T01:33:32;7.22;;;4.40;;
50549;SDS011;36505;52.512;13.460;2023-04-24T01:35:57;5.72;;;4.55;;
50549;SDS011;36505;52.512;13.460;2023-04-24T01:38:23;6.72;;;4.50;;
50549;SDS011;36505;52.512;13.460;2023-04-24T01:40:49;7.53;;;4.50;;
50549;SDS011;36505;52.512;13.460;2023-04-24T01:43:16;8.02;;;4.50;;
50549;SDS011;36505;52.512;13.460;2023-04-24T01:45:41;8.27;;;4.82;;
50549;SDS011;36505;52.512;13.460;2023-04-24T01:48:06;7.20;;;4.72;;
50549;SDS011;36505;52.512;13.460;2023-04-24T01:50:32;6.32;;;4.82;;
50549;SDS011;36505;52.512;13.460;2023-04-24T01:52:57;6.97;;;5.30;;
50549;SDS011;36505;52.512;13.460;2023-04-24T01:55:24;6.15;;;5.20;;
50549;SDS011;36505;52.512;13.460;2023-04-24T01:57:50;5.78;;;4.30;;
50549;SDS011;36505;52.512;13.460;2023-04-24T02:00:17;6.05;;;4.32;;
50549;SDS011;36505;52.512;13.460;2023-04-24T02:02:42;6.85;;;4.72;;
50549;SDS011;36505;52.512;13.460;2023-04-24T02:05:08;5.72;;;4.45;;
50549;SDS011;36505;52.512;13.460;2023-04-24T02:07:34;7.93;;;5.03;;
50549;SDS011;36505;52.512;13.460;2023-04-24T02:10:00;7.50;;;5.35;;
50549;SDS011;36505;52.512;13.460;2023-04-24T02:12:25;6.80;;;4.78;;
50549;SDS011;36505;52.512;13.460;2023-04-24T02:14:50;8.07;;;5.10;;
50549;SDS011;36505;52.512;13.460;2023-04-24T02:17:16;6.10;;;4.85;;
50549;SDS011;36505;52.512;13.460;2023-04-24T02:19:41;7.38;;;5.05;;
50549;SDS011;36505;52.512;13.460;2023-04-24T02:22:07;6.40;;;4.75;;
50549;SDS011;36505;52.512;13.460;2023-04-24T02:24:32;6.20;;;4.45;;
50549;SDS011;36505;52.512;13.460;2023-04-24T02:26:58;13.73;;;5.18;;
50549;SDS011;36505;52.512;13.460;2023-04-24T02:29:23;11.85;;;5.38;;
50549;SDS011;36505;52.512;13.460;2023-04-24T02:31:48;7.65;;;5.03;;
50549;SDS011;36505;52.512;13.460;2023-04-24T02:34:14;5.80;;;4.75;;
50549;SDS011;36505;52.512;13.460;2023-04-24T02:36:39;7.32;;;5.43;;
50549;SDS011;36505;52.512;13.460;2023-04-24T02:39:04;7.47;;;5.47;;
50549;SDS011;36505;52.512;13.460;2023-04-24T02:41:30;7.60;;;4.95;;
50549;SDS011;36505;52.512;13.460;2023-04-24T02:43:57;7.47;;;4.85;;
50549;SDS011;36505;52.512;13.460;2023-04-24T02:46:23;6.38;;;4.75;;
50549;SDS011;36505;52.512;13.460;2023-04-24T02:48:49;7.70;;;4.88;;
50549;SDS011;36505;52.512;13.460;2023-04-24T02:51:14;9.23;;;5.45;;
50549;SDS011;36505;52.512;13.460;2023-04-24T02:53:40;7.50;;;5.30;;
50549;SDS011;36505;52.512;13.460;2023-04-24T02:56:05;7.45;;;5.15;;
50549;SDS011;36505;52.512;13.460;2023-04-24T02:58:30;7.57;;;5.47;;
50549;SDS011;36505;52.512;13.460;2023-04-24T03:00:56;7.95;;;5.82;;
50549;SDS011;36505;52.512;13.460;2023-04-24T03:03:21;9.18;;;5.50;;
50549;SDS011;36505;52.512;13.460;2023-04-24T03:05:47;7.93;;;5.30;;
50549;SDS011;36505;52.512;13.460;2023-04-24T03:08:12;7.22;;;5.38;;
50549;SDS011;36505;52.512;13.460;2023-04-24T03:10:39;9.43;;;5.97;;
50549;SDS011;36505;52.512;13.460;2023-04-24T03:13:04;8.88;;;6.00;;
50549;SDS011;36505;52.512;13.460;2023-04-24T03:15:30;8.15;;;5.63;;
50549;SDS011;36505;52.512;13.460;2023-04-24T03:17:55;8.13;;;5.38;;
50549;SDS011;36505;52.512;13.460;2023-04-24T03:20:21;7.55;;;5.13;;
50549;SDS011;36505;52.512;13.460;2023-04-24T03:22:47;8.10;;;5.43;;
50549;SDS011;36505;52.512;13.460;2023-04-24T03:25:12;9.82;;;5.07;;
50549;SDS011;36505;52.512;13.460;2023-04-24T03:27:37;8.98;;;6.00;;
50549;SDS011;36505;52.512;13.460;2023-04-24T03:30:04;12.65;;;6.22;;
50549;SDS011;36505;52.512;13.460;2023-04-24T03:32:30;12.85;;;6.32;;
50549;SDS011;36505;52.512;13.460;2023-04-24T03:34:57;13.88;;;7.25;;
50549;SDS011;36505;52.512;13.460;2023-04-24T03:37:22;15.68;;;7.22;;
50549;SDS011;36505;52.512;13.460;2023-04-24T03:39:47;18.08;;;8.23;;
50549;SDS011;36505;52.512;13.460;2023-04-24T03:42:13;13.93;;;6.97;;
50549;SDS011;36505;52.512;13.460;2023-04-24T03:44:38;11.90;;;6.18;;
50549;SDS011;36505;52.512;13.460;2023-04-24T03:47:04;12.07;;;6.88;;
50549;SDS011;36505;52.512;13.460;2023-04-24T03:49:29;13.35;;;6.85;;
50549;SDS011;36505;52.512;13.460;2023-04-24T03:51:55;12.77;;;6.95;;
50549;SDS011;36505;52.512;13.460;2023-04-24T03:54:20;12.77;;;6.47;;
50549;SDS011;36505;52.512;13.460;2023-04-24T03:56:45;15.85;;;9.65;;
50549;SDS011;36505;52.512;13.460;2023-04-24T03:59:11;15.00;;;9.32;;
50549;SDS011;36505;52.512;13.460;2023-04-24T04:01:36;10.68;;;6.20;;
50549;SDS011;36505;52.512;13.460;2023-04-24T04:04:05;9.23;;;5.35;;
50549;SDS011;36505;52.512;13.460;2023-04-24T04:06:31;8.15;;;4.95;;
50549;SDS011;36505;52.512;13.460;2023-04-24T04:08:56;7.72;;;5.82;;
50549;SDS011;36505;52.512;13.460;2023-04-24T04:11:22;7.05;;;4.88;;
50549;SDS011;36505;52.512;13.460;2023-04-24T04:13:48;8.10;;;4.78;;
50549;SDS011;36505;52.512;13.460;2023-04-24T04:16:13;9.30;;;4.97;;
50549;SDS011;36505;52.512;13.460;2023-04-24T04:18:41;9.55;;;5.15;;
50549;SDS011;36505;52.512;13.460;2023-04-24T04:21:09;6.15;;;4.20;;
50549;SDS011;36505;52.512;13.460;2023-04-24T04:23:34;8.25;;;4.28;;
50549;SDS011;36505;52.512;13.460;2023-04-24T04:26:00;9.10;;;4.60;;
50549;SDS011;36505;52.512;13.460;2023-04-24T04:28:26;8.73;;;5.18;;
50549;SDS011;36505;52.512;13.460;2023-04-24T04:30:51;12.82;;;5.13;;
50549;SDS011;36505;52.512;13.460;2023-04-24T04:33:20;7.15;;;4.50;;
50549;SDS011;36505;52.512;13.460;2023-04-24T04:35:46;8.98;;;4.80;;
50549;SDS011;36505;52.512;13.460;2023-04-24T04:38:16;5.75;;;4.10;;
50549;SDS011;36505;52.512;13.460;2023-04-24T04:40:42;8.75;;;4.93;;
50549;SDS011;36505;52.512;13.460;2023-04-24T04:43:08;7.07;;;4.35;;
50549;SDS011;36505;52.512;13.460;2023-04-24T04:45:35;9.02;;;4.93;;
50549;SDS011;36505;52.512;13.460;2023-04-24T04:48:00;9.65;;;4.35;;
50549;SDS011;36505;52.512;13.460;2023-04-24T04:50:27;9.38;;;4.93;;
50549;SDS011;36505;52.512;13.460;2023-04-24T04:52:52;12.25;;;7.90;;
50549;SDS011;36505;52.512;13.460;2023-04-24T04:55:18;11.55;;;5.50;;
50549;SDS011;36505;52.512;13.460;2023-04-24T04:57:45;7.15;;;4.70;;
50549;SDS011;36505;52.512;13.460;2023-04-24T05:00:10;11.18;;;4.70;;
50549;SDS011;36505;52.512;13.460;2023-04-24T05:02:37;7.65;;;4.22;;
50549;SDS011;36505;52.512;13.460;2023-04-24T05:05:02;9.85;;;4.10;;
50549;SDS011;36505;52.512;13.460;2023-04-24T05:07:28;6.97;;;4.80;;
50549;SDS011;36505;52.512;13.460;2023-04-24T05:09:53;9.27;;;4.78;;
50549;SDS011;36505;52.512;13.460;2023-04-24T05:12:19;6.85;;;4.13;;
50549;SDS011;36505;52.512;13.460;2023-04-24T05:14:44;6.55;;;4.18;;
50549;SDS011;36505;52.512;13.460;2023-04-24T05:17:09;6.93;;;4.13;;
50549;SDS011;36505;52.512;13.460;2023-04-24T05:19:35;5.20;;;4.10;;
50549;SDS011;36505;52.512;13.460;2023-04-24T05:22:02;7.22;;;4.28;;
50549;SDS011;36505;52.512;13.460;2023-04-24T05:24:29;8.25;;;4.70;;
50549;SDS011;36505;52.512;13.460;2023-04-24T05:26:55;5.65;;;4.20;;
50549;SDS011;36505;52.512;13.460;2023-04-24T05:29:20;12.77;;;4.28;;
50549;SDS011;36505;52.512;13.460;2023-04-24T05:31:46;6.82;;;4.32;;
50549;SDS011;36505;52.512;13.460;2023-04-24T05:34:11;6.95;;;4.18;;
50549;SDS011;36505;52.512;13.460;2023-04-24T05:36:37;6.97;;;3.90;;
50549;SDS011;36505;52.512;13.460;2023-04-24T05:39:02;7.88;;;4.30;;
50549;SDS011;36505;52.512;13.460;2023-04-24T05:41:29;6.90;;;4.10;;
50549;SDS011;36505;52.512;13.460;2023-04-24T05:43:55;6.32;;;3.58;;
50549;SDS011;36505;52.512;13.460;2023-04-24T05:46:20;5.63;;;3.22;;
50549;SDS011;36505;52.512;13.460;2023-04-24T05:48:46;4.30;;;2.60;;
50549;SDS011;36505;52.512;13.460;2023-04-24T05:51:11;4.72;;;2.50;;
50549;SDS011;36505;52.512;13.460;2023-04-24T05:53:36;7.07;;;2.75;;
50549;SDS011;36505;52.512;13.460;2023-04-24T05:56:02;3.45;;;2.50;;
50549;SDS011;36505;52.512;13.460;2023-04-24T05:58:27;4.80;;;2.53;;
50549;SDS011;36505;52.512;13.460;2023-04-24T06:00:52;5.30;;;2.75;;
50549;SDS011;36505;52.512;13.460;2023-04-24T06:03:18;4.80;;;2.47;;
50549;SDS011;36505;52.512;13.460;2023-04-24T06:05:43;3.40;;;1.95;;
50549;SDS011;36505;52.512;13.460;2023-04-24T06:08:09;8.82;;;2.00;;
50549;SDS011;36505;52.512;13.460;2023-04-24T06:10:34;5.45;;;2.03;;
50549;SDS011;36505;52.512;13.460;2023-04-24T06:13:00;3.33;;;1.67;;
50549;SDS011;36505;52.512;13.460;2023-04-24T06:15:28;6.38;;;1.80;;
50549;SDS011;36505;52.512;13.460;2023-04-24T06:17:55;7.70;;;1.45;;
50549;SDS011;36505;52.512;13.460;2023-04-24T06:20:21;4.65;;;1.38;;
50549;SDS011;36505;52.512;13.460;2023-04-24T06:22:46;3.58;;;1.58;;
50549;SDS011;36505;52.512;13.460;2023-04-24T06:25:12;4.63;;;1.92;;
50549;SDS011;36505;52.512;13.460;2023-04-24T06:27:37;2.78;;;1.70;;
50549;SDS011;36505;52.512;13.460;2023-04-24T06:30:03;1.25;;;1.10;;
50549;SDS011;36505;52.512;13.460;2023-04-24T06:32:28;2.97;;;1.23;;
50549;SDS011;36505;52.512;13.460;2023-04-24T06:34:55;1.73;;;1.15;;
50549;SDS011;36505;52.512;13.460;2023-04-24T06:37:21;2.40;;;1.35;;
50549;SDS011;36505;52.512;13.460;2023-04-24T06:39:46;2.70;;;1.23;;
50549;SDS011;36505;52.512;13.460;2023-04-24T06:42:12;2.35;;;1.30;;
50549;SDS011;36505;52.512;13.460;2023-04-24T06:44:37;4.55;;;1.27;;
50549;SDS011;36505;52.512;13.460;2023-04-24T06:47:06;3.78;;;1.67;;
50549;SDS011;36505;52.512;13.460;2023-04-24T06:49:33;3.63;;;1.58;;
50549;SDS011;36505;52.512;13.460;2023-04-24T06:52:02;3.80;;;1.50;;
50549;SDS011;36505;52.512;13.460;2023-04-24T06:54:29;2.55;;;1.10;;
50549;SDS011;36505;52.512;13.460;2023-04-24T06:56:55;2.72;;;1.00;;
50549;SDS011;36505;52.512;13.460;2023-04-24T06:59:22;3.55;;;1.55;;
50549;SDS011;36505;52.512;13.460;2023-04-24T07:01:48;3.90;;;1.20;;
50549;SDS011;36505;52.512;13.460;2023-04-24T07:04:13;3.30;;;1.27;;
50549;SDS011;36505;52.512;13.460;2023-04-24T07:06:39;2.67;;;1.10;;
50549;SDS011;36505;52.512;13.460;2023-04-24T07:09:04;5.05;;;1.27;;
50549;SDS011;36505;52.512;13.460;2023-04-24T07:11:30;2.10;;;0.90;;
50549;SDS011;36505;52.512;13.460;2023-04-24T07:13:56;4.93;;;1.40;;
50549;SDS011;36505;52.512;13.460;2023-04-24T07:16:21;1.73;;;1.02;;
50549;SDS011;36505;52.512;13.460;2023-04-24T07:18:47;3.20;;;1.38;;
50549;SDS011;36505;52.512;13.460;2023-04-24T07:21:12;5.70;;;1.10;;
50549;SDS011;36505;52.512;13.460;2023-04-24T07:23:38;6.15;;;1.00;;
50549;SDS011;36505;52.512;13.460;2023-04-24T07:26:03;3.53;;;1.10;;
50549;SDS011;36505;52.512;13.460;2023-04-24T07:28:29;3.25;;;0.95;;
50549;SDS011;36505;52.512;13.460;2023-04-24T07:30:57;1.55;;;0.80;;
50549;SDS011;36505;52.512;13.460;2023-04-24T07:33:24;4.60;;;1.20;;
50549;SDS011;36505;52.512;13.460;2023-04-24T07:35:50;3.72;;;0.73;;
50549;SDS011;36505;52.512;13.460;2023-04-24T07:38:17;2.45;;;0.70;;
50549;SDS011;36505;52.512;13.460;2023-04-24T07:40:45;2.30;;;0.82;;
50549;SDS011;36505;52.512;13.460;2023-04-24T07:43:10;3.00;;;1.10;;
50549;SDS011;36505;52.512;13.460;2023-04-24T07:45:36;1.80;;;1.00;;
50549;SDS011;36505;52.512;13.460;2023-04-24T07:48:02;2.17;;;1.30;;
50549;SDS011;36505;52.512;13.460;2023-04-24T07:50:28;3.38;;;1.50;;
50549;SDS011;36505;52.512;13.460;2023-04-24T07:52:53;3.45;;;1.90;;
50549;SDS011;36505;52.512;13.460;2023-04-24T07:55:18;1.35;;;1.00;;
50549;SDS011;36505;52.512;13.460;2023-04-24T07:57:44;3.25;;;1.70;;
50549;SDS011;36505;52.512;13.460;2023-04-24T08:00:10;5.28;;;1.75;;
50549;SDS011;36505;52.512;13.460;2023-04-24T08:02:35;3.40;;;1.58;;
50549;SDS011;36505;52.512;13.460;2023-04-24T08:05:01;3.22;;;1.75;;
50549;SDS011;36505;52.512;13.460;2023-04-24T08:07:28;4.00;;;0.90;;
50549;SDS011;36505;52.512;13.460;2023-04-24T08:09:54;0.70;;;0.40;;
50549;SDS011;36505;52.512;13.460;2023-04-24T08:12:19;3.95;;;1.88;;
50549;SDS011;36505;52.512;13.460;2023-04-24T08:14:45;6.90;;;1.60;;
50549;SDS011;36505;52.512;13.460;2023-04-24T08:17:10;4.53;;;1.95;;
50549;SDS011;36505;52.512;13.460;2023-04-24T08:19:35;2.70;;;1.10;;
50549;SDS011;36505;52.512;13.460;2023-04-24T08:22:01;2.72;;;1.30;;
50549;SDS011;36505;52.512;13.460;2023-04-24T08:24:26;13.75;;;1.33;;
50549;SDS011;36505;52.512;13.460;2023-04-24T08:26:52;7.93;;;1.75;;
50549;SDS011;36505;52.512;13.460;2023-04-24T08:29:18;23.20;;;4.75;;
50549;SDS011;36505;52.512;13.460;2023-04-24T08:31:44;9.50;;;1.88;;
50549;SDS011;36505;52.512;13.460;2023-04-24T08:34:09;5.18;;;1.52;;
50549;SDS011;36505;52.512;13.460;2023-04-24T08:36:35;11.38;;;1.00;;
50549;SDS011;36505;52.512;13.460;2023-04-24T08:39:01;6.20;;;1.90;;
50549;SDS011;36505;52.512;13.460;2023-04-24T08:41:27;7.43;;;1.73;;
50549;SDS011;36505;52.512;13.460;2023-04-24T08:43:52;5.05;;;1.10;;
50549;SDS011;36505;52.512;13.460;2023-04-24T08:46:18;7.05;;;1.58;;
50549;SDS011;36505;52.512;13.460;2023-04-24T08:48:44;15.00;;;5.90;;
50549;SDS011;36505;52.512;13.460;2023-04-24T08:51:10;6.30;;;1.40;;
50549;SDS011;36505;52.512;13.460;2023-04-24T08:53:35;3.33;;;1.30;;
50549;SDS011;36505;52.512;13.460;2023-04-24T08:56:01;2.40;;;1.00;;
50549;SDS011;36505;52.512;13.460;2023-04-24T08:58:27;9.75;;;2.10;;
50549;SDS011;36505;52.512;13.460;2023-04-24T09:00:56;4.07;;;1.20;;
50549;SDS011;36505;52.512;13.460;2023-04-24T09:03:23;10.02;;;1.65;;
50549;SDS011;36505;52.512;13.460;2023-04-24T09:05:49;21.52;;;2.95;;
50549;SDS011;36505;52.512;13.460;2023-04-24T09:08:18;7.82;;;1.42;;
50549;SDS011;36505;52.512;13.460;2023-04-24T09:10:44;14.95;;;1.88;;
50549;SDS011;36505;52.512;13.460;2023-04-24T09:13:10;48.10;;;2.25;;
50549;SDS011;36505;52.512;13.460;2023-04-24T09:15:36;12.02;;;2.03;;
50549;SDS011;36505;52.512;13.460;2023-04-24T09:18:02;7.22;;;1.48;;
50549;SDS011;36505;52.512;13.460;2023-04-24T09:20:28;7.15;;;1.17;;
50549;SDS011;36505;52.512;13.460;2023-04-24T09:22:54;7.60;;;2.05;;
50549;SDS011;36505;52.512;13.460;2023-04-24T09:25:20;3.45;;;1.27;;
50549;SDS011;36505;52.512;13.460;2023-04-24T09:27:46;13.00;;;3.10;;
50549;SDS011;36505;52.512;13.460;2023-04-24T09:30:12;6.78;;;2.60;;
50549;SDS011;36505;52.512;13.460;2023-04-24T09:32:39;10.27;;;1.40;;
50549;SDS011;36505;52.512;13.460;2023-04-24T09:35:05;3.83;;;1.35;;
50549;SDS011;36505;52.512;13.460;2023-04-24T09:37:35;6.13;;;1.40;;
50549;SDS011;36505;52.512;13.460;2023-04-24T09:40:19;3.55;;;0.85;;
50549;SDS011;36505;52.512;13.460;2023-04-24T09:42:54;6.53;;;1.83;;
50549;SDS011;36505;52.512;13.460;2023-04-24T09:45:21;10.45;;;2.20;;
50549;SDS011;36505;52.512;13.460;2023-04-24T09:47:51;5.88;;;1.35;;
50549;SDS011;36505;52.512;13.460;2023-04-24T09:50:18;13.00;;;4.95;;
50549;SDS011;36505;52.512;13.460;2023-04-24T09:52:46;6.53;;;2.63;;
50549;SDS011;36505;52.512;13.460;2023-04-24T09:55:21;15.05;;;4.65;;
50549;SDS011;36505;52.512;13.460;2023-04-24T09:57:50;7.05;;;2.42;;
50549;SDS011;36505;52.512;13.460;2023-04-24T10:00:22;4.43;;;2.10;;
50549;SDS011;36505;52.512;13.460;2023-04-24T10:02:56;6.85;;;1.55;;
50549;SDS011;36505;52.512;13.460;2023-04-24T10:08:15;4.50;;;1.30;;
50549;SDS011;36505;52.512;13.460;2023-04-24T10:10:44;4.63;;;1.40;;
50549;SDS011;36505;52.512;13.460;2023-04-24T10:13:11;6.38;;;0.98;;
50549;SDS011;36505;52.512;13.460;2023-04-24T10:15:38;2.50;;;0.75;;
50549;SDS011;36505;52.512;13.460;2023-04-24T10:18:05;2.42;;;1.10;;
50549;SDS011;36505;52.512;13.460;2023-04-24T10:20:31;2.05;;;0.90;;
50549;SDS011;36505;52.512;13.460;2023-04-24T10:22:58;1.35;;;0.90;;
50549;SDS011;36505;52.512;13.460;2023-04-24T10:25:29;4.90;;;1.20;;
50549;SDS011;36505;52.512;13.460;2023-04-24T10:27:56;2.28;;;1.23;;
50549;SDS011;36505;52.512;13.460;2023-04-24T10:30:24;4.13;;;1.40;;
50549;SDS011;36505;52.512;13.460;2023-04-24T10:32:51;1.55;;;1.10;;
50549;SDS011;36505;52.512;13.460;2023-04-24T10:35:17;2.25;;;1.08;;
50549;SDS011;36505;52.512;13.460;2023-04-24T10:37:48;1.75;;;1.10;;
50549;SDS011;36505;52.512;13.460;2023-04-24T10:40:19;3.85;;;1.05;;
50549;SDS011;36505;52.512;13.460;2023-04-24T10:42:51;3.33;;;1.20;;
50549;SDS011;36505;52.512;13.460;2023-04-24T10:45:20;4.10;;;1.45;;
50549;SDS011;36505;52.512;13.460;2023-04-24T10:48:00;1.67;;;0.88;;
50549;SDS011;36505;52.512;13.460;2023-04-24T10:50:28;1.92;;;0.80;;
50549;SDS011;36505;52.512;13.460;2023-04-24T10:53:04;2.88;;;0.90;;
50549;SDS011;36505;52.512;13.460;2023-04-24T10:55:48;1.73;;;0.70;;
50549;SDS011;36505;52.512;13.460;2023-04-24T10:58:15;6.35;;;2.38;;
50549;SDS011;36505;52.512;13.460;2023-04-24T11:00:54;4.90;;;1.38;;
50549;SDS011;36505;52.512;13.460;2023-04-24T11:03:23;8.07;;;4.45;;
50549;SDS011;36505;52.512;13.460;2023-04-24T11:06:02;5.07;;;1.65;;
50549;SDS011;36505;52.512;13.460;2023-04-24T11:13:24;4.05;;;0.90;;
50549;SDS011;36505;52.512;13.460;2023-04-24T11:18:49;2.63;;;1.00;;
50549;SDS011;36505;52.512;13.460;2023-04-24T11:21:18;3.90;;;0.70;;
50549;SDS011;36505;52.512;13.460;2023-04-24T11:23:44;2.67;;;1.23;;
50549;SDS011;36505;52.512;13.460;2023-04-24T11:26:11;2.63;;;1.27;;
50549;SDS011;36505;52.512;13.460;2023-04-24T11:28:43;2.40;;;1.00;;
50549;SDS011;36505;52.512;13.460;2023-04-24T11:34:07;3.03;;;1.00;;
50549;SDS011;36505;52.512;13.460;2023-04-24T11:36:33;2.13;;;1.08;;
50549;SDS011;36505;52.512;13.460;2023-04-24T11:39:00;2.58;;;1.08;;
50549;SDS011;36505;52.512;13.460;2023-04-24T11:41:26;35.83;;;4.20;;
50549;SDS011;36505;52.512;13.460;2023-04-24T11:43:52;21.95;;;2.70;;
50549;SDS011;36505;52.512;13.460;2023-04-24T11:46:20;18.55;;;4.78;;
50549;SDS011;36505;52.512;13.460;2023-04-24T11:48:46;7.13;;;1.92;;
50549;SDS011;36505;52.512;13.460;2023-04-24T11:51:12;1.35;;;0.88;;
50549;SDS011;36505;52.512;13.460;2023-04-24T11:53:38;3.65;;;1.13;;
50549;SDS011;36505;52.512;13.460;2023-04-24T11:56:04;5.53;;;0.98;;
50549;SDS011;36505;52.512;13.460;2023-04-24T11:58:34;2.55;;;1.00;;
50549;SDS011;36505;52.512;13.460;2023-04-24T12:01:05;3.22;;;1.13;;
50549;SDS011;36505;52.512;13.460;2023-04-24T12:03:31;8.95;;;1.35;;
50549;SDS011;36505;52.512;13.460;2023-04-24T12:06:05;5.53;;;1.23;;
50549;SDS011;36505;52.512;13.460;2023-04-24T12:08:35;6.18;;;1.05;;
50549;SDS011;36505;52.512;13.460;2023-04-24T12:11:01;8.93;;;1.27;;
50549;SDS011;36505;52.512;13.460;2023-04-24T12:13:28;2.60;;;1.13;;
50549;SDS011;36505;52.512;13.460;2023-04-24T12:15:54;3.22;;;1.42;;
50549;SDS011;36505;52.512;13.460;2023-04-24T12:18:22;2.42;;;1.25;;
50549;SDS011;36505;52.512;13.460;2023-04-24T12:20:48;2.60;;;1.15;;
50549;SDS011;36505;52.512;13.460;2023-04-24T12:23:13;5.78;;;1.13;;
50549;SDS011;36505;52.512;13.460;2023-04-24T12:25:39;4.07;;;1.77;;
50549;SDS011;36505;52.512;13.460;2023-04-24T12:30:32;2.75;;;1.10;;
50549;SDS011;36505;52.512;13.460;2023-04-24T12:32:59;2.97;;;0.90;;
50549;SDS011;36505;52.512;13.460;2023-04-24T12:35:27;6.93;;;1.50;;
50549;SDS011;36505;52.512;13.460;2023-04-24T12:37:53;2.75;;;1.38;;
50549;SDS011;36505;52.512;13.460;2023-04-24T12:40:20;1.85;;;1.00;;
50549;SDS011;36505;52.512;13.460;2023-04-24T12:42:47;1.95;;;0.90;;
50549;SDS011;36505;52.512;13.460;2023-04-24T12:45:16;4.15;;;1.77;;
50549;SDS011;36505;52.512;13.460;2023-04-24T12:47:43;5.85;;;1.40;;
50549;SDS011;36505;52.512;13.460;2023-04-24T12:50:09;5.65;;;1.70;;
50549;SDS011;36505;52.512;13.460;2023-04-24T12:52:36;3.38;;;1.63;;
50549;SDS011;36505;52.512;13.460;2023-04-24T12:55:01;4.30;;;1.90;;
50549;SDS011;36505;52.512;13.460;2023-04-24T12:57:28;6.07;;;1.20;;
50549;SDS011;36505;52.512;13.460;2023-04-24T12:59:55;8.38;;;1.27;;
50549;SDS011;36505;52.512;13.460;2023-04-24T13:02:22;15.45;;;1.35;;
50549;SDS011;36505;52.512;13.460;2023-04-24T13:04:48;6.97;;;1.42;;
50549;SDS011;36505;52.512;13.460;2023-04-24T13:07:14;7.43;;;1.40;;
50549;SDS011;36505;52.512;13.460;2023-04-24T13:09:40;19.40;;;3.22;;
50549;SDS011;36505;52.512;13.460;2023-04-24T13:12:07;7.55;;;1.80;;
50549;SDS011;36505;52.512;13.460;2023-04-24T13:14:33;3.00;;;1.27;;
50549;SDS011;36505;52.512;13.460;2023-04-24T13:16:58;9.98;;;1.20;;
50549;SDS011;36505;52.512;13.460;2023-04-24T13:19:24;12.32;;;1.77;;
50549;SDS011;36505;52.512;13.460;2023-04-24T13:21:51;6.00;;;1.50;;
50549;SDS011;36505;52.512;13.460;2023-04-24T13:24:17;7.45;;;1.40;;
50549;SDS011;36505;52.512;13.460;2023-04-24T13:26:42;2.95;;;1.05;;
50549;SDS011;36505;52.512;13.460;2023-04-24T13:29:08;3.13;;;0.93;;
50549;SDS011;36505;52.512;13.460;2023-04-24T13:31:34;4.05;;;1.35;;
50549;SDS011;36505;52.512;13.460;2023-04-24T13:33:59;2.33;;;0.70;;
50549;SDS011;36505;52.512;13.460;2023-04-24T13:36:25;1.52;;;1.00;;
50549;SDS011;36505;52.512;13.460;2023-04-24T13:38:51;4.35;;;2.17;;
50549;SDS011;36505;52.512;13.460;2023-04-24T13:41:16;3.55;;;0.88;;
50549;SDS011;36505;52.512;13.460;2023-04-24T13:43:41;2.95;;;1.20;;
50549;SDS011;36505;52.512;13.460;2023-04-24T13:46:07;7.68;;;1.27;;
50549;SDS011;36505;52.512;13.460;2023-04-24T13:48:33;2.38;;;1.20;;
50549;SDS011;36505;52.512;13.460;2023-04-24T13:50:59;2.97;;;1.02;;
50549;SDS011;36505;52.512;13.460;2023-04-24T13:53:24;1.90;;;0.90;;
50549;SDS011;36505;52.512;13.460;2023-04-24T13:55:50;3.10;;;1.48;;
50549;SDS011;36505;52.512;13.460;2023-04-24T13:58:15;7.13;;;1.90;;
50549;SDS011;36505;52.512;13.460;2023-04-24T14:00:41;4.70;;;1.80;;
50549;SDS011;36505;52.512;13.460;2023-04-24T14:03:06;2.92;;;1.40;;
50549;SDS011;36505;52.512;13.460;2023-04-24T14:05:33;3.13;;;1.13;;
50549;SDS011;36505;52.512;13.460;2023-04-24T14:07:58;2.03;;;0.90;;
50549;SDS011;36505;52.512;13.460;2023-04-24T14:10:23;1.88;;;0.70;;
50549;SDS011;36505;52.512;13.460;2023-04-24T14:12:49;2.17;;;1.15;;
50549;SDS011;36505;52.512;13.460;2023-04-24T14:15:16;14.18;;;3.15;;
50549;SDS011;36505;52.512;13.460;2023-04-24T14:17:41;3.42;;;1.48;;
50549;SDS011;36505;52.512;13.460;2023-04-24T14:20:07;2.22;;;1.05;;
50549;SDS011;36505;52.512;13.460;2023-04-24T14:22:33;1.10;;;0.70;;
50549;SDS011;36505;52.512;13.460;2023-04-24T14:24:59;2.72;;;1.10;;
50549;SDS011;36505;52.512;13.460;2023-04-24T14:27:25;5.40;;;2.00;;
50549;SDS011;36505;52.512;13.460;2023-04-24T14:29:51;2.85;;;1.95;;
50549;SDS011;36505;52.512;13.460;2023-04-24T14:32:17;7.47;;;3.20;;
50549;SDS011;36505;52.512;13.460;2023-04-24T14:34:42;1.90;;;1.10;;
50549;SDS011;36505;52.512;13.460;2023-04-24T14:37:08;4.32;;;0.90;;
50549;SDS011;36505;52.512;13.460;2023-04-24T14:39:33;4.13;;;1.38;;
50549;SDS011;36505;52.512;13.460;2023-04-24T14:41:59;4.53;;;1.00;;
50549;SDS011;36505;52.512;13.460;2023-04-24T14:44:25;5.68;;;1.85;;